createdAt,value
2018-05-03T00:00:19.042Z,11.33
2018-05-03T00:01:19.100Z,11.26
2018-05-03T00:02:19.162Z,11.30
2018-05-03T00:03:19.226Z,11.22
2018-05-03T00:04:19.314Z,11.29
2018-05-03T00:05:19.356Z,11.19
2018-05-03T00:06:19.419Z,11.19
2018-05-03T00:07:19.482Z,11.25
2018-05-03T00:08:19.551Z,11.26
2018-05-03T00:09:19.617Z,11.25
2018-05-03T00:10:19.679Z,11.12
2018-05-03T00:11:19.734Z,11.18
2018-05-03T00:12:19.798Z,11.18
2018-05-03T00:13:19.863Z,11.18
2018-05-03T00:14:19.941Z,11.15
2018-05-03T00:15:20.061Z,11.15
2018-05-03T00:16:20.051Z,11.10
2018-05-03T00:17:20.119Z,11.10
2018-05-03T00:18:20.195Z,11.02
2018-05-03T00:19:20.247Z,11.05
2018-05-03T00:20:20.325Z,11.05
2018-05-03T00:21:20.371Z,11.02
2018-05-03T00:22:20.439Z,11.02
2018-05-03T00:23:20.500Z,11.04
2018-05-03T00:24:20.560Z,11.10
2018-05-03T00:25:20.636Z,11.07
2018-05-03T00:26:20.695Z,11.05
2018-05-03T00:27:20.756Z,11.15
2018-05-03T00:28:20.819Z,11.14
2018-05-03T00:29:20.881Z,11.18
2018-05-03T00:30:20.952Z,11.12
2018-05-03T00:31:21.019Z,11.15
2018-05-03T00:32:21.072Z,11.11
2018-05-03T00:33:21.135Z,11.22
2018-05-03T00:34:21.200Z,11.19
2018-05-03T00:35:21.264Z,11.29
2018-05-03T00:36:21.340Z,11.26
2018-05-03T00:37:21.392Z,11.41
2018-05-03T00:38:21.451Z,11.41
2018-05-03T00:39:21.516Z,11.36
2018-05-03T00:40:21.587Z,11.48
2018-05-03T00:41:21.655Z,11.55
2018-05-03T00:42:21.716Z,11.57
2018-05-03T00:43:21.772Z,11.68
2018-05-03T00:44:21.836Z,11.68
2018-05-03T00:45:21.900Z,11.70
2018-05-03T00:46:21.968Z,11.73
2018-05-03T00:47:22.032Z,11.73
2018-05-03T00:48:22.092Z,11.78
2018-05-03T00:49:22.152Z,11.81
2018-05-03T00:50:22.217Z,11.84
2018-05-03T00:51:22.300Z,11.99
2018-05-03T00:52:22.348Z,12.04
2018-05-03T00:53:22.409Z,11.99
2018-05-03T00:54:22.473Z,12.09
2018-05-03T00:55:22.537Z,12.00
2018-05-03T00:56:22.604Z,12.02
2018-05-03T00:57:22.669Z,12.13
2018-05-03T00:58:22.725Z,12.17
2018-05-03T00:59:22.789Z,12.17
2018-05-03T01:00:22.852Z,12.24
2018-05-03T01:01:22.925Z,12.31
2018-05-03T01:02:22.989Z,12.36
2018-05-03T01:03:23.047Z,12.35
2018-05-03T01:04:23.108Z,12.32
2018-05-03T01:05:23.173Z,12.39
2018-05-03T01:06:23.257Z,12.36
2018-05-03T01:07:23.301Z,12.40
2018-05-03T01:08:23.365Z,12.43
2018-05-03T01:09:23.425Z,12.36
2018-05-03T01:10:23.497Z,12.42
2018-05-03T01:11:23.561Z,12.42
2018-05-03T01:12:23.625Z,12.45
2018-05-03T01:13:23.685Z,12.46
2018-05-03T01:14:23.749Z,12.46
2018-05-03T01:15:23.809Z,12.53
2018-05-03T01:16:23.881Z,12.50
2018-05-03T01:17:23.941Z,12.53
2018-05-03T01:18:24.001Z,12.45
2018-05-03T01:19:24.066Z,12.42
2018-05-03T01:20:24.129Z,12.37
2018-05-03T01:21:24.301Z,12.43
2018-05-03T01:22:24.253Z,12.36
2018-05-03T01:23:24.321Z,12.29
2018-05-03T01:24:24.382Z,12.31
2018-05-03T01:25:24.445Z,12.35
2018-05-03T01:26:24.518Z,12.18
2018-05-03T01:27:24.583Z,12.27
2018-05-03T01:28:24.637Z,12.27
2018-05-03T01:29:24.706Z,12.32
2018-05-03T01:30:24.765Z,12.24
2018-05-03T01:31:24.834Z,12.29
2018-05-03T01:32:24.901Z,12.27
2018-05-03T01:33:24.954Z,12.21
2018-05-03T01:34:25.019Z,12.18
2018-05-03T01:35:25.083Z,12.15
2018-05-03T01:36:25.163Z,12.20
2018-05-03T01:37:25.210Z,12.06
2018-05-03T01:38:25.273Z,12.07
2018-05-03T01:39:25.338Z,12.06
2018-05-03T01:40:25.402Z,12.07
2018-05-03T01:41:25.470Z,12.07
2018-05-03T01:42:25.535Z,11.99
2018-05-03T01:43:25.604Z,11.99
2018-05-03T01:44:25.658Z,11.91
2018-05-03T01:45:25.718Z,12.04
2018-05-03T01:46:25.794Z,11.99
2018-05-03T01:47:25.858Z,11.91
2018-05-03T01:48:25.910Z,11.91
2018-05-03T01:49:25.975Z,11.91
2018-05-03T01:50:26.040Z,11.94
2018-05-03T01:51:26.116Z,11.88
2018-05-03T01:52:26.166Z,11.88
2018-05-03T01:53:26.230Z,11.94
2018-05-03T01:54:26.291Z,11.91
2018-05-03T01:55:26.355Z,11.88
2018-05-03T01:56:26.426Z,11.86
2018-05-03T01:57:26.491Z,11.91
2018-05-03T01:58:26.548Z,11.90
2018-05-03T01:59:26.613Z,11.90
2018-05-03T02:00:26.677Z,11.84
2018-05-03T02:01:26.744Z,11.86
2018-05-03T02:02:26.810Z,11.88
2018-05-03T02:03:26.867Z,11.91
2018-05-03T02:04:26.923Z,11.84
2018-05-03T02:05:26.991Z,11.95
2018-05-03T02:06:27.063Z,11.88
2018-05-03T02:07:27.127Z,11.91
2018-05-03T02:08:27.187Z,11.86
2018-05-03T02:09:27.247Z,11.90
2018-05-03T02:10:27.312Z,11.99
2018-05-03T02:11:27.532Z,12.02
2018-05-03T02:12:27.436Z,11.94
2018-05-03T02:13:27.495Z,11.99
2018-05-03T02:14:27.564Z,11.95
2018-05-03T02:15:27.628Z,11.91
2018-05-03T02:16:27.700Z,11.99
2018-05-03T02:17:27.760Z,12.03
2018-05-03T02:18:27.820Z,11.99
2018-05-03T02:19:27.880Z,11.99
2018-05-03T02:20:27.944Z,11.91
2018-05-03T02:21:28.018Z,11.95
2018-05-03T02:22:28.080Z,11.94
2018-05-03T02:23:28.136Z,11.97
2018-05-03T02:24:28.203Z,11.99
2018-05-03T02:25:28.320Z,11.99
2018-05-03T02:26:29.140Z,11.97
2018-05-03T02:27:28.420Z,12.00
2018-05-03T02:28:28.472Z,11.99
2018-05-03T02:29:28.528Z,12.03
2018-05-03T02:30:28.600Z,12.04
2018-05-03T02:31:28.664Z,12.06
2018-05-03T02:32:28.775Z,12.04
2018-05-03T02:33:28.785Z,12.02
2018-05-03T02:34:28.859Z,12.03
2018-05-03T02:35:28.980Z,12.03
2018-05-03T02:36:29.005Z,12.07
2018-05-03T02:37:29.049Z,12.03
2018-05-03T02:38:29.097Z,12.04
2018-05-03T02:39:29.153Z,11.97
2018-05-03T02:40:29.225Z,12.12
2018-05-03T02:41:29.277Z,12.06
2018-05-03T02:42:29.399Z,12.03
2018-05-03T02:43:29.441Z,12.04
2018-05-03T02:44:29.474Z,12.03
2018-05-03T02:45:29.533Z,12.00
2018-05-03T02:46:29.602Z,12.02
2018-05-03T02:47:29.673Z,12.07
2018-05-03T02:48:29.734Z,12.09
2018-05-03T02:49:29.790Z,12.07
2018-05-03T02:50:29.849Z,12.02
2018-05-03T02:51:29.914Z,12.10
2018-05-03T02:52:29.993Z,12.00
2018-05-03T02:53:30.062Z,12.20
2018-05-03T02:54:30.110Z,12.13
2018-05-03T02:55:30.171Z,12.17
2018-05-03T02:56:30.234Z,12.28
2018-05-03T02:57:30.293Z,12.20
2018-05-03T02:58:30.718Z,12.24
2018-05-03T02:59:30.422Z,12.24
2018-05-03T03:00:30.503Z,12.32
2018-05-03T03:01:30.862Z,12.31
2018-05-03T03:02:30.753Z,12.35
2018-05-03T03:03:30.707Z,12.28
2018-05-03T03:04:30.775Z,12.28
2018-05-03T03:05:30.822Z,12.31
2018-05-03T03:06:30.880Z,12.39
2018-05-03T03:07:31.655Z,12.42
2018-05-03T03:08:30.999Z,12.36
2018-05-03T03:09:31.090Z,12.35
2018-05-03T03:10:31.126Z,12.43
2018-05-03T03:11:31.190Z,12.31
2018-05-03T03:12:31.258Z,12.40
2018-05-03T03:13:31.315Z,12.37
2018-05-03T03:14:31.522Z,12.36
2018-05-03T03:15:31.449Z,12.36
2018-05-03T03:16:31.511Z,12.37
2018-05-03T03:17:31.588Z,12.32
2018-05-03T03:18:31.635Z,12.32
2018-05-03T03:19:31.699Z,12.45
2018-05-03T03:20:31.763Z,12.36
2018-05-03T03:21:31.831Z,12.37
2018-05-03T03:22:31.883Z,12.36
2018-05-03T03:23:31.951Z,12.42
2018-05-03T03:24:32.028Z,12.40
2018-05-03T03:25:32.083Z,12.31
2018-05-03T03:26:32.146Z,12.42
2018-05-03T03:27:32.236Z,12.29
2018-05-03T03:28:32.299Z,12.35
2018-05-03T03:29:32.355Z,12.28
2018-05-03T03:30:32.411Z,12.32
2018-05-03T03:31:32.475Z,12.29
2018-05-03T03:32:32.520Z,12.32
2018-05-03T03:33:32.639Z,12.29
2018-05-03T03:34:32.652Z,12.28
2018-05-03T03:35:32.720Z,12.25
2018-05-03T03:36:32.768Z,12.39
2018-05-03T03:37:32.840Z,12.31
2018-05-03T03:38:32.904Z,12.31
2018-05-03T03:39:32.980Z,12.31
2018-05-03T03:40:33.032Z,12.32
2018-05-03T03:41:33.091Z,12.22
2018-05-03T03:42:33.152Z,12.32
2018-05-03T03:43:33.215Z,12.32
2018-05-03T03:44:33.280Z,12.27
2018-05-03T03:45:33.359Z,12.31
2018-05-03T03:46:33.564Z,12.20
2018-05-03T03:47:33.568Z,12.28
2018-05-03T03:48:33.560Z,12.24
2018-05-03T03:49:33.592Z,12.21
2018-05-03T03:50:33.672Z,12.17
2018-05-03T03:51:33.740Z,12.18
2018-05-03T03:52:33.832Z,12.22
2018-05-03T03:53:33.868Z,12.29
2018-05-03T03:54:33.916Z,12.25
2018-05-03T03:55:33.996Z,12.17
2018-05-03T03:56:34.052Z,12.13
2018-05-03T03:57:34.108Z,12.17
2018-05-03T03:58:34.168Z,12.17
2018-05-03T03:59:34.243Z,12.10
2018-05-03T04:00:34.608Z,12.07
2018-05-03T04:01:34.360Z,12.06
2018-05-03T04:02:34.420Z,12.12
2018-05-03T04:03:34.492Z,12.02
2018-05-03T04:04:34.556Z,12.04
2018-05-03T04:05:34.631Z,12.06
2018-05-03T04:06:34.696Z,11.99
2018-05-03T04:07:34.745Z,12.03
2018-05-03T04:08:34.809Z,12.09
2018-05-03T04:09:34.872Z,11.99
2018-05-03T04:10:34.937Z,11.99
2018-05-03T04:11:35.001Z,11.91
2018-05-03T04:12:35.096Z,11.91
2018-05-03T04:13:35.120Z,12.02
2018-05-03T04:14:35.186Z,11.99
2018-05-03T04:15:35.253Z,11.86
2018-05-03T04:16:35.649Z,11.87
2018-05-03T04:17:35.377Z,11.73
2018-05-03T04:18:35.441Z,11.78
2018-05-03T04:19:35.509Z,11.75
2018-05-03T04:20:35.575Z,11.66
2018-05-03T04:21:35.637Z,11.70
2018-05-03T04:22:35.706Z,11.68
2018-05-03T04:23:35.757Z,11.59
2018-05-03T04:24:35.825Z,11.54
2018-05-03T04:25:35.890Z,11.60
2018-05-03T04:26:35.958Z,11.55
2018-05-03T04:27:36.026Z,11.52
2018-05-03T04:28:36.087Z,11.47
2018-05-03T04:29:36.142Z,11.48
2018-05-03T04:30:36.225Z,11.45
2018-05-03T04:31:36.270Z,11.37
2018-05-03T04:32:36.362Z,11.44
2018-05-03T04:33:36.390Z,11.47
2018-05-03T04:34:36.530Z,11.40
2018-05-03T04:35:36.526Z,11.36
2018-05-03T04:36:36.605Z,11.36
2018-05-03T04:37:36.651Z,11.30
2018-05-03T04:38:36.717Z,11.35
2018-05-03T04:39:36.775Z,11.29
2018-05-03T04:40:36.835Z,11.25
2018-05-03T04:41:36.898Z,11.25
2018-05-03T04:42:36.970Z,11.35
2018-05-03T04:43:37.039Z,11.30
2018-05-03T04:44:37.095Z,11.25
2018-05-03T04:45:37.159Z,11.25
2018-05-03T04:46:37.214Z,11.32
2018-05-03T04:47:37.299Z,11.17
2018-05-03T04:48:37.407Z,11.25
2018-05-03T04:49:37.407Z,11.26
2018-05-03T04:50:37.471Z,11.14
2018-05-03T04:51:37.535Z,11.17
2018-05-03T04:52:37.627Z,11.22
2018-05-03T04:53:37.670Z,11.14
2018-05-03T04:54:37.723Z,11.18
2018-05-03T04:55:37.790Z,11.23
2018-05-03T04:56:37.855Z,11.26
2018-05-03T04:57:37.923Z,11.30
2018-05-03T04:58:37.987Z,11.26
2018-05-03T04:59:38.043Z,11.29
2018-05-03T05:00:38.130Z,11.26
2018-05-03T05:01:38.187Z,11.29
2018-05-03T05:02:38.399Z,11.37
2018-05-03T05:03:38.287Z,11.27
2018-05-03T05:04:38.413Z,11.35
2018-05-03T05:05:38.423Z,11.40
2018-05-03T05:06:38.515Z,11.35
2018-05-03T05:07:38.555Z,11.33
2018-05-03T05:08:38.623Z,11.35
2018-05-03T05:09:38.675Z,11.51
2018-05-03T05:10:38.908Z,11.45
2018-05-03T05:11:38.799Z,11.36
2018-05-03T05:12:38.876Z,11.48
2018-05-03T05:13:39.200Z,11.50
2018-05-03T05:14:38.988Z,11.50
2018-05-03T05:15:39.052Z,11.54
2018-05-03T05:16:39.116Z,11.54
2018-05-03T05:17:39.180Z,11.57
2018-05-03T05:18:39.402Z,11.69
2018-05-03T05:19:39.308Z,11.78
2018-05-03T05:20:39.368Z,11.81
2018-05-03T05:21:39.432Z,11.87
2018-05-03T05:22:39.500Z,11.88
2018-05-03T05:23:39.568Z,11.99
2018-05-03T05:24:39.635Z,12.02
2018-05-03T05:25:39.688Z,12.02
2018-05-03T05:26:39.748Z,12.04
2018-05-03T05:27:39.812Z,12.00
2018-05-03T05:28:39.886Z,12.07
2018-05-03T05:29:39.948Z,12.06
2018-05-03T05:30:40.037Z,12.13
2018-05-03T05:31:40.069Z,12.21
2018-05-03T05:32:40.132Z,12.32
2018-05-03T05:33:40.212Z,12.25
2018-05-03T05:34:40.260Z,12.28
2018-05-03T05:35:40.324Z,12.28
2018-05-03T05:36:40.388Z,12.40
2018-05-03T05:37:40.453Z,12.45
2018-05-03T05:38:40.541Z,12.47
2018-05-03T05:39:40.585Z,12.42
2018-05-03T05:40:40.645Z,12.43
2018-05-03T05:41:40.705Z,12.53
2018-05-03T05:42:40.768Z,12.60
2018-05-03T05:43:40.840Z,12.57
2018-05-03T05:44:40.908Z,12.57
2018-05-03T05:45:40.961Z,12.57
2018-05-03T05:46:41.025Z,12.55
2018-05-03T05:47:41.093Z,12.60
2018-05-03T05:48:41.221Z,12.70
2018-05-03T05:49:41.221Z,12.70
2018-05-03T05:50:41.285Z,12.70
2018-05-03T05:51:41.352Z,12.76
2018-05-03T05:52:41.413Z,12.78
2018-05-03T05:53:41.481Z,12.78
2018-05-03T05:54:41.545Z,12.91
2018-05-03T05:55:41.606Z,12.87
2018-05-03T05:56:41.718Z,12.97
2018-05-03T05:57:41.734Z,12.91
2018-05-03T05:58:41.807Z,13.08
2018-05-03T05:59:41.869Z,12.98
2018-05-03T06:00:41.925Z,13.09
2018-05-03T06:01:41.991Z,13.13
2018-05-03T06:02:42.054Z,13.12
2018-05-03T06:03:42.134Z,13.08
2018-05-03T06:04:42.186Z,13.09
2018-05-03T06:05:42.252Z,13.16
2018-05-03T06:06:42.314Z,13.20
2018-05-03T06:07:42.378Z,13.19
2018-05-03T06:08:42.450Z,13.11
2018-05-03T06:09:42.514Z,13.19
2018-05-03T06:10:42.570Z,13.19
2018-05-03T06:11:42.634Z,13.31
2018-05-03T06:12:42.702Z,13.30
2018-05-03T06:13:42.770Z,13.41
2018-05-03T06:14:42.839Z,13.47
2018-05-03T06:15:42.894Z,13.39
2018-05-03T06:16:42.958Z,13.33
2018-05-03T06:17:43.023Z,13.38
2018-05-03T06:18:43.223Z,13.33
2018-05-03T06:19:43.154Z,13.30
2018-05-03T06:20:43.218Z,13.30
2018-05-03T06:21:43.283Z,13.49
2018-05-03T06:22:43.346Z,13.33
2018-05-03T06:23:43.418Z,13.47
2018-05-03T06:24:43.482Z,13.49
2018-05-03T06:25:43.543Z,13.50
2018-05-03T06:26:43.607Z,13.70
2018-05-03T06:27:43.671Z,13.74
2018-05-03T06:28:43.743Z,13.75
2018-05-03T06:29:43.807Z,13.79
2018-05-03T06:30:43.867Z,13.83
2018-05-03T06:31:43.934Z,13.74
2018-05-03T06:32:43.995Z,13.79
2018-05-03T06:33:44.067Z,13.83
2018-05-03T06:34:44.131Z,13.65
2018-05-03T06:35:44.191Z,13.89
2018-05-03T06:36:44.255Z,14.03
2018-05-03T06:37:44.322Z,14.00
2018-05-03T06:38:44.399Z,14.23
2018-05-03T06:39:44.455Z,14.28
2018-05-03T06:40:44.515Z,14.41
2018-05-03T06:41:44.588Z,14.35
2018-05-03T06:42:44.646Z,14.45
2018-05-03T06:43:44.715Z,15.00
2018-05-03T06:44:44.784Z,16.20
2018-05-03T06:45:44.844Z,17.24
2018-05-03T06:46:44.932Z,17.64
2018-05-03T06:47:44.976Z,17.98
2018-05-03T06:48:45.056Z,17.31
2018-05-03T06:49:45.120Z,18.15
2018-05-03T06:50:45.180Z,18.83
2018-05-03T06:51:45.252Z,19.34
2018-05-03T06:52:45.319Z,19.67
2018-05-03T06:53:45.403Z,19.37
2018-05-03T06:54:45.459Z,18.73
2018-05-03T06:55:45.528Z,18.08
2018-05-03T06:56:45.609Z,17.89
2018-05-03T06:57:45.668Z,18.03
2018-05-03T06:58:45.746Z,18.22
2018-05-03T06:59:45.814Z,18.52
2018-05-03T07:00:45.977Z,18.81
2018-05-03T07:01:45.944Z,19.02
2018-05-03T07:02:46.016Z,19.02
2018-05-03T07:03:46.263Z,19.85
2018-05-03T07:04:46.156Z,19.84
2018-05-03T07:05:46.228Z,20.29
2018-05-03T07:06:46.297Z,20.59
2018-05-03T07:07:46.373Z,20.65
2018-05-03T07:08:46.448Z,20.63
2018-05-03T07:09:46.520Z,20.31
2018-05-03T07:10:46.589Z,20.19
2018-05-03T07:11:46.660Z,20.32
2018-05-03T07:12:46.734Z,19.95
2018-05-03T07:13:46.812Z,20.72
2018-05-03T07:14:46.885Z,20.93
2018-05-03T07:15:46.952Z,21.17
2018-05-03T07:16:47.025Z,20.66
2018-05-03T07:17:47.097Z,19.51
2018-05-03T07:18:47.473Z,18.80
2018-05-03T07:19:47.241Z,18.11
2018-05-03T07:20:47.313Z,17.85
2018-05-03T07:21:47.385Z,18.05
2018-05-03T07:22:47.458Z,18.20
2018-05-03T07:23:47.546Z,18.83
2018-05-03T07:24:47.609Z,19.84
2018-05-03T07:25:47.681Z,19.63
2018-05-03T07:26:47.751Z,18.63
2018-05-03T07:27:47.822Z,17.83
2018-05-03T07:28:47.901Z,17.78
2018-05-03T07:29:47.974Z,17.94
2018-05-03T07:30:48.038Z,17.63
2018-05-03T07:31:48.110Z,17.63
2018-05-03T07:32:48.182Z,17.70
2018-05-03T07:33:48.469Z,17.83
2018-05-03T07:34:48.330Z,18.26
2018-05-03T07:35:48.398Z,18.18
2018-05-03T07:36:48.470Z,18.63
2018-05-03T07:37:48.538Z,19.40
2018-05-03T07:38:48.618Z,19.85
2018-05-03T07:39:48.689Z,20.47
2018-05-03T07:40:48.755Z,20.62
2018-05-03T07:41:48.826Z,20.70
2018-05-03T07:42:48.899Z,20.81
2018-05-03T07:43:48.974Z,20.69
2018-05-03T07:44:49.050Z,20.74
2018-05-03T07:45:49.110Z,20.69
2018-05-03T07:46:49.190Z,21.11
2018-05-03T07:47:49.258Z,21.45
2018-05-03T07:48:49.326Z,22.35
2018-05-03T07:49:49.419Z,22.76
2018-05-03T07:50:49.470Z,22.75
2018-05-03T07:51:49.546Z,22.81
2018-05-03T07:52:49.619Z,23.20
2018-05-03T07:53:49.691Z,22.18
2018-05-03T07:54:49.770Z,21.20
2018-05-03T07:55:49.847Z,21.88
2018-05-03T07:56:49.915Z,22.08
2018-05-03T07:57:49.986Z,22.11
2018-05-03T07:58:50.064Z,21.51
2018-05-03T07:59:50.170Z,21.67
2018-05-03T08:00:50.207Z,22.23
2018-05-03T08:01:50.279Z,22.17
2018-05-03T08:02:50.355Z,20.81
2018-05-03T08:03:50.431Z,20.03
2018-05-03T08:04:50.527Z,19.64
2018-05-03T08:05:50.580Z,19.33
2018-05-03T08:06:50.657Z,19.45
2018-05-03T08:07:50.719Z,19.74
2018-05-03T08:08:50.791Z,19.00
2018-05-03T08:09:50.871Z,19.26
2018-05-03T08:10:50.944Z,19.85
2018-05-03T08:11:51.008Z,20.59
2018-05-03T08:12:51.080Z,21.55
2018-05-03T08:13:51.152Z,21.96
2018-05-03T08:14:51.448Z,22.41
2018-05-03T08:15:51.296Z,22.35
2018-05-03T08:16:51.372Z,22.25
2018-05-03T08:17:51.447Z,21.96
2018-05-03T08:18:51.528Z,21.96
2018-05-03T08:19:51.596Z,21.66
2018-05-03T08:20:51.668Z,21.11
2018-05-03T08:21:51.736Z,20.87
2018-05-03T08:22:51.808Z,20.26
2018-05-03T08:23:51.880Z,19.94
2018-05-03T08:24:51.956Z,20.36
2018-05-03T08:25:52.024Z,20.36
2018-05-03T08:26:52.092Z,20.60
2018-05-03T08:27:52.168Z,20.62
2018-05-03T08:28:52.238Z,20.52
2018-05-03T08:29:52.332Z,20.25
2018-05-03T08:30:52.380Z,19.63
2018-05-03T08:31:52.507Z,19.40
2018-05-03T08:32:52.532Z,19.63
2018-05-03T08:33:52.596Z,19.76
2018-05-03T08:34:52.673Z,19.45
2018-05-03T08:35:52.740Z,19.21
2018-05-03T08:36:52.812Z,19.40
2018-05-03T08:37:52.881Z,18.95
2018-05-03T08:38:52.962Z,18.03
2018-05-03T08:39:53.025Z,18.19
2018-05-03T08:40:53.097Z,18.41
2018-05-03T08:41:53.160Z,18.60
2018-05-03T08:42:53.228Z,18.81
2018-05-03T08:43:53.311Z,18.96
2018-05-03T08:44:53.389Z,19.15
2018-05-03T08:45:53.450Z,19.63
2018-05-03T08:46:53.514Z,19.51
2018-05-03T08:47:53.586Z,20.36
2018-05-03T08:48:53.653Z,20.85
2018-05-03T08:49:53.729Z,20.62
2018-05-03T08:50:53.801Z,20.85
2018-05-03T08:51:53.865Z,20.92
2018-05-03T08:52:53.937Z,21.79
2018-05-03T08:53:54.009Z,21.76
2018-05-03T08:54:54.093Z,21.66
2018-05-03T08:55:54.149Z,21.33
2018-05-03T08:56:54.217Z,21.24
2018-05-03T08:57:54.297Z,21.67
2018-05-03T08:58:54.373Z,22.51
2018-05-03T08:59:54.447Z,22.72
2018-05-03T09:00:54.517Z,22.62
2018-05-03T09:01:54.616Z,23.03
2018-05-03T09:02:54.655Z,22.23
2018-05-03T09:03:54.725Z,22.13
2018-05-03T09:04:54.806Z,21.54
2018-05-03T09:05:54.874Z,22.29
2018-05-03T09:06:54.942Z,22.38
2018-05-03T09:07:55.049Z,22.17
2018-05-03T09:08:55.086Z,21.77
2018-05-03T09:09:55.170Z,21.64
2018-05-03T09:10:55.230Z,21.37
2018-05-03T09:11:55.302Z,21.24
2018-05-03T09:12:55.373Z,21.82
2018-05-03T09:13:55.446Z,21.18
2018-05-03T09:14:55.526Z,21.54
2018-05-03T09:15:55.594Z,22.26
2018-05-03T09:16:55.662Z,22.35
2018-05-03T09:17:55.730Z,21.83
2018-05-03T09:18:55.802Z,21.73
2018-05-03T09:19:55.882Z,21.70
2018-05-03T09:20:55.954Z,21.20
2018-05-03T09:21:56.018Z,21.52
2018-05-03T09:22:56.094Z,21.93
2018-05-03T09:23:56.166Z,21.35
2018-05-03T09:24:56.302Z,21.36
2018-05-03T09:25:56.306Z,21.14
2018-05-03T09:26:56.406Z,21.40
2018-05-03T09:27:56.450Z,20.84
2018-05-03T09:28:56.522Z,20.04
2018-05-03T09:29:56.602Z,20.11
2018-05-03T09:30:56.678Z,20.07
2018-05-03T09:31:56.738Z,20.34
2018-05-03T09:32:56.810Z,20.63
2018-05-03T09:33:56.878Z,20.74
2018-05-03T09:34:56.958Z,21.17
2018-05-03T09:35:57.032Z,21.48
2018-05-03T09:36:57.094Z,21.43
2018-05-03T09:37:57.166Z,21.54
2018-05-03T09:38:57.238Z,21.50
2018-05-03T09:39:57.323Z,21.24
2018-05-03T09:40:57.378Z,20.97
2018-05-03T09:41:57.455Z,20.55
2018-05-03T09:42:57.518Z,20.99
2018-05-03T09:43:57.590Z,20.62
2018-05-03T09:44:57.670Z,20.81
2018-05-03T09:45:57.739Z,21.05
2018-05-03T09:46:57.803Z,20.82
2018-05-03T09:47:57.875Z,20.85
2018-05-03T09:48:57.947Z,20.78
2018-05-03T09:49:58.035Z,20.63
2018-05-03T09:50:58.099Z,20.70
2018-05-03T09:51:58.172Z,20.60
2018-05-03T09:52:58.267Z,20.85
2018-05-03T09:53:58.303Z,21.24
2018-05-03T09:54:58.387Z,21.54
2018-05-03T09:55:58.463Z,21.11
2018-05-03T09:56:58.527Z,21.35
2018-05-03T09:57:58.599Z,21.45
2018-05-03T09:58:58.651Z,21.85
2018-05-03T09:59:58.744Z,22.18
2018-05-03T10:00:58.819Z,21.73
2018-05-03T10:01:58.871Z,21.27
2018-05-03T10:02:58.932Z,21.61
2018-05-03T10:03:59.003Z,21.62
2018-05-03T10:04:59.332Z,22.17
2018-05-03T10:05:59.156Z,22.47
2018-05-03T10:06:59.212Z,22.22
2018-05-03T10:07:59.288Z,22.26
2018-05-03T10:08:59.356Z,22.45
2018-05-03T10:09:59.440Z,22.54
2018-05-03T10:10:59.528Z,22.80
2018-05-03T10:11:59.564Z,22.93
2018-05-03T10:12:59.644Z,23.06
2018-05-03T10:13:59.720Z,22.30
2018-05-03T10:14:59.792Z,21.88
2018-05-03T10:15:59.868Z,21.92
2018-05-03T10:16:59.920Z,21.36
2018-05-03T10:17:59.997Z,21.66
2018-05-03T10:19:00.076Z,22.10
2018-05-03T10:20:00.420Z,22.48
2018-05-03T10:21:00.219Z,21.98
2018-05-03T10:22:00.272Z,22.25
2018-05-03T10:23:00.361Z,22.20
2018-05-03T10:24:00.413Z,22.33
2018-05-03T10:25:00.492Z,21.77
2018-05-03T10:26:00.578Z,21.66
2018-05-03T10:27:00.628Z,21.43
2018-05-03T10:28:00.705Z,21.30
2018-05-03T10:29:00.769Z,21.67
2018-05-03T10:30:00.901Z,22.15
2018-05-03T10:31:00.936Z,22.30
2018-05-03T10:32:00.993Z,22.26
2018-05-03T10:33:01.061Z,22.28
2018-05-03T10:34:01.121Z,22.22
2018-05-03T10:35:01.201Z,22.23
2018-05-03T10:36:01.490Z,22.25
2018-05-03T10:37:01.344Z,20.81
2018-05-03T10:38:01.409Z,20.24
2018-05-03T10:39:01.473Z,20.04
2018-05-03T10:40:01.553Z,20.36
2018-05-03T10:41:01.633Z,20.59
2018-05-03T10:42:01.776Z,20.36
2018-05-03T10:43:01.785Z,20.00
2018-05-03T10:44:01.829Z,19.22
2018-05-03T10:45:01.897Z,19.04
2018-05-03T10:46:01.998Z,18.74
2018-05-03T10:47:02.048Z,18.56
2018-05-03T10:48:02.106Z,18.29
2018-05-03T10:49:02.247Z,18.55
2018-05-03T10:50:02.246Z,19.15
2018-05-03T10:51:02.342Z,19.24
2018-05-03T10:52:02.386Z,19.76
2018-05-03T10:53:02.455Z,19.76
2018-05-03T10:54:02.522Z,20.09
2018-05-03T10:55:02.602Z,20.02
2018-05-03T10:56:02.677Z,20.04
2018-05-03T10:57:02.738Z,20.51
2018-05-03T10:58:02.806Z,20.31
2018-05-03T10:59:02.869Z,20.16
2018-05-03T11:00:02.954Z,20.11
2018-05-03T11:01:03.029Z,20.44
2018-05-03T11:02:03.101Z,20.92
2018-05-03T11:03:03.162Z,20.66
2018-05-03T11:04:03.266Z,21.09
2018-05-03T11:05:03.286Z,21.02
2018-05-03T11:06:03.371Z,20.95
2018-05-03T11:07:03.434Z,21.00
2018-05-03T11:08:03.491Z,21.35
2018-05-03T11:09:03.567Z,21.05
2018-05-03T11:10:03.634Z,20.85
2018-05-03T11:11:03.732Z,20.88
2018-05-03T11:12:03.822Z,20.85
2018-05-03T11:13:03.842Z,21.05
2018-05-03T11:14:03.914Z,20.95
2018-05-03T11:15:03.982Z,21.22
2018-05-03T11:16:04.062Z,21.30
2018-05-03T11:17:04.134Z,21.57
2018-05-03T11:18:04.246Z,21.72
2018-05-03T11:19:04.260Z,21.93
2018-05-03T11:20:04.330Z,22.18
2018-05-03T11:21:04.582Z,21.25
2018-05-03T11:22:04.466Z,20.96
2018-05-03T11:23:04.540Z,20.40
2018-05-03T11:24:04.610Z,20.29
2018-05-03T11:25:04.679Z,20.25
2018-05-03T11:26:04.751Z,20.40
2018-05-03T11:27:04.830Z,20.13
2018-05-03T11:28:04.890Z,20.06
2018-05-03T11:29:04.954Z,20.07
2018-05-03T11:30:05.026Z,20.07
2018-05-03T11:31:05.123Z,20.21
2018-05-03T11:32:05.162Z,20.55
2018-05-03T11:33:05.226Z,20.82
2018-05-03T11:34:05.303Z,20.97
2018-05-03T11:35:05.375Z,21.33
2018-05-03T11:36:05.450Z,20.81
2018-05-03T11:37:05.526Z,20.56
2018-05-03T11:38:05.579Z,20.14
2018-05-03T11:39:05.647Z,19.82
2018-05-03T11:40:05.719Z,20.16
2018-05-03T11:41:05.795Z,20.37
2018-05-03T11:42:05.868Z,20.67
2018-05-03T11:43:05.930Z,20.58
2018-05-03T11:44:05.996Z,20.74
2018-05-03T11:45:06.071Z,20.85
2018-05-03T11:46:06.291Z,20.85
2018-05-03T11:47:06.203Z,20.37
2018-05-03T11:48:06.275Z,20.22
2018-05-03T11:49:06.396Z,20.69
2018-05-03T11:50:06.411Z,20.88
2018-05-03T11:51:06.488Z,20.99
2018-05-03T11:52:06.559Z,20.92
2018-05-03T11:53:06.621Z,20.93
2018-05-03T11:54:06.687Z,21.00
2018-05-03T11:55:06.759Z,20.75
2018-05-03T11:56:06.839Z,21.11
2018-05-03T11:57:06.913Z,21.40
2018-05-03T11:58:06.967Z,21.39
2018-05-03T11:59:07.043Z,21.73
2018-05-03T12:00:07.107Z,21.48
2018-05-03T12:01:07.175Z,21.22
2018-05-03T12:02:07.260Z,21.25
2018-05-03T12:03:07.316Z,21.25
2018-05-03T12:04:07.383Z,21.17
2018-05-03T12:05:07.456Z,20.99
2018-05-03T12:06:07.550Z,21.17
2018-05-03T12:07:07.600Z,21.25
2018-05-03T12:08:07.668Z,21.02
2018-05-03T12:09:07.731Z,20.67
2018-05-03T12:10:07.800Z,20.37
2018-05-03T12:11:07.873Z,20.69
2018-05-03T12:12:07.947Z,20.90
2018-05-03T12:13:08.016Z,20.84
2018-05-03T12:14:08.080Z,21.20
2018-05-03T12:15:08.152Z,21.24
2018-05-03T12:16:08.219Z,21.14
2018-05-03T12:17:08.300Z,21.25
2018-05-03T12:18:08.413Z,21.17
2018-05-03T12:19:08.424Z,21.33
2018-05-03T12:20:08.496Z,21.67
2018-05-03T12:21:08.564Z,21.88
2018-05-03T12:22:08.647Z,21.92
2018-05-03T12:23:08.708Z,21.72
2018-05-03T12:24:08.773Z,21.11
2018-05-03T12:25:08.844Z,20.51
2018-05-03T12:26:08.916Z,20.78
2018-05-03T12:27:08.988Z,20.72
2018-05-03T12:28:09.056Z,20.75
2018-05-03T12:29:09.120Z,20.84
2018-05-03T12:30:09.188Z,21.06
2018-05-03T12:31:09.260Z,21.20
2018-05-03T12:32:09.328Z,21.02
2018-05-03T12:33:09.704Z,21.07
2018-05-03T12:34:09.469Z,21.00
2018-05-03T12:35:09.537Z,20.93
2018-05-03T12:36:09.605Z,21.15
2018-05-03T12:37:09.681Z,20.92
2018-05-03T12:38:09.753Z,20.69
2018-05-03T12:39:09.821Z,20.84
2018-05-03T12:40:09.884Z,20.80
2018-05-03T12:41:09.956Z,20.84
2018-05-03T12:42:10.026Z,20.84
2018-05-03T12:43:10.113Z,20.84
2018-05-03T12:44:10.161Z,20.19
2018-05-03T12:45:10.233Z,20.02
2018-05-03T12:46:10.301Z,20.14
2018-05-03T12:47:10.369Z,20.51
2018-05-03T12:48:10.445Z,20.28
2018-05-03T12:49:10.513Z,20.24
2018-05-03T12:50:10.581Z,20.41
2018-05-03T12:51:10.646Z,20.74
2018-05-03T12:52:10.717Z,20.97
2018-05-03T12:53:10.793Z,21.06